createdAt,value
2023-03-29T00:02:48.830Z,1.50
2023-03-29T00:06:51.307Z,1.50
2023-03-29T00:10:54.229Z,1.85
2023-03-29T00:18:57.654Z,1.10
2023-03-29T00:22:59.334Z,1.17
2023-03-29T00:27:01.182Z,1.30
2023-03-29T00:31:11.532Z,1.50
2023-03-29T00:35:13.257Z,1.30
2023-03-29T00:39:14.898Z,1.58
2023-03-29T00:43:16.961Z,1.00
2023-03-29T00:47:25.005Z,1.50
2023-03-29T00:51:30.835Z,1.27
2023-03-29T00:55:37.922Z,1.48
2023-03-29T00:59:42.105Z,1.38
2023-03-29T01:03:50.257Z,1.13
2023-03-29T01:08:00.731Z,1.40
2023-03-29T01:12:09.127Z,1.70
2023-03-29T01:16:13.116Z,2.08
2023-03-29T01:20:31.942Z,1.50
2023-03-29T01:24:45.505Z,1.70
2023-03-29T01:28:53.247Z,1.20
2023-03-29T01:32:59.521Z,1.70
2023-03-29T01:37:07.724Z,1.23
2023-03-29T01:41:10.929Z,1.83
2023-03-29T01:45:21.112Z,1.92
2023-03-29T01:49:23.247Z,1.48
2023-03-29T01:53:37.488Z,0.97
2023-03-29T01:57:42.976Z,2.13
2023-03-29T02:01:51.070Z,1.65
2023-03-29T02:05:54.629Z,1.42
2023-03-29T02:09:58.412Z,1.73
2023-03-29T02:14:00.197Z,1.40
2023-03-29T02:18:04.066Z,1.23
2023-03-29T02:22:10.413Z,1.35
2023-03-29T02:26:14.608Z,1.73
2023-03-29T02:30:18.917Z,1.33
2023-03-29T02:34:28.341Z,1.55
2023-03-29T02:38:31.660Z,1.40
2023-03-29T02:42:35.823Z,1.23
2023-03-29T02:46:38.565Z,1.63
2023-03-29T02:58:47.698Z,1.08
2023-03-29T03:02:50.959Z,1.33
2023-03-29T03:06:53.375Z,2.00
2023-03-29T03:10:55.301Z,1.30
2023-03-29T03:14:57.048Z,1.47
2023-03-29T03:18:59.198Z,1.65
2023-03-29T03:23:03.531Z,1.80
2023-03-29T03:27:06.366Z,1.50
2023-03-29T03:31:08.283Z,1.33
2023-03-29T03:35:33.089Z,1.42
2023-03-29T03:39:34.882Z,1.50
2023-03-29T03:43:42.526Z,1.13
2023-03-29T03:47:45.686Z,1.50
2023-03-29T03:52:19.434Z,1.42
2023-03-29T03:56:21.652Z,1.10
2023-03-29T04:00:44.825Z,1.30
2023-03-29T04:05:04.922Z,1.50
2023-03-29T04:09:11.298Z,2.08
2023-03-29T04:13:17.300Z,1.75
2023-03-29T04:17:42.278Z,2.00
2023-03-29T04:21:55.008Z,1.70
2023-03-29T04:25:57.039Z,1.90
2023-03-29T04:30:36.935Z,1.67
2023-03-29T04:34:53.384Z,2.00
2023-03-29T04:38:55.180Z,2.00
2023-03-29T04:42:57.786Z,1.88
2023-03-29T04:47:00.758Z,1.70
2023-03-29T04:51:26.209Z,1.95
2023-03-29T04:55:29.545Z,1.77
2023-03-29T04:59:35.913Z,1.75
2023-03-29T05:03:45.887Z,1.58
2023-03-29T05:07:55.093Z,2.45
2023-03-29T05:12:02.554Z,2.17
2023-03-29T05:16:12.741Z,2.10
2023-03-29T05:20:16.318Z,2.22
2023-03-29T05:24:20.433Z,1.88
2023-03-29T05:28:31.032Z,2.50
2023-03-29T05:32:32.959Z,1.90
2023-03-29T05:36:34.979Z,2.03
2023-03-29T05:40:37.327Z,1.63
2023-03-29T05:45:13.987Z,1.88
2023-03-29T05:49:17.159Z,2.28
2023-03-29T05:53:34.101Z,2.05
2023-03-29T05:57:37.745Z,2.30
2023-03-29T06:01:42.159Z,2.60
2023-03-29T06:05:50.308Z,2.88
2023-03-29T06:09:54.186Z,2.38
2023-03-29T06:13:57.767Z,2.70
2023-03-29T06:18:00.077Z,2.27
2023-03-29T06:22:02.141Z,2.90
2023-03-29T06:26:07.874Z,2.40
2023-03-29T06:30:13.128Z,3.00
2023-03-29T06:38:39.295Z,2.38
2023-03-29T06:42:59.716Z,2.72
2023-03-29T06:47:20.162Z,2.92
2023-03-29T06:51:23.539Z,2.50
2023-03-29T06:55:26.154Z,3.08
2023-03-29T06:59:30.082Z,2.67
2023-03-29T07:03:46.796Z,2.75
2023-03-29T07:07:56.585Z,2.72
2023-03-29T07:12:11.155Z,2.30
2023-03-29T07:16:13.978Z,2.80
2023-03-29T07:20:53.210Z,2.67
2023-03-29T07:24:56.132Z,2.67
2023-03-29T07:28:58.950Z,2.70
2023-03-29T07:33:00.943Z,2.75
2023-03-29T07:37:13.805Z,2.60
2023-03-29T07:41:17.554Z,2.40
2023-03-29T07:45:28.328Z,2.80
2023-03-29T07:49:36.162Z,2.80
2023-03-29T07:53:38.580Z,2.22
2023-03-29T07:57:50.477Z,2.53
2023-03-29T08:01:54.381Z,2.20
2023-03-29T08:06:12.994Z,2.55
2023-03-29T08:10:18.338Z,3.03
2023-03-29T08:14:44.626Z,2.83
2023-03-29T08:18:59.130Z,2.70
2023-03-29T08:23:18.086Z,2.80
2023-03-29T08:27:39.148Z,1.92
2023-03-29T08:31:43.084Z,2.80
2023-03-29T08:35:47.068Z,2.83
2023-03-29T08:39:57.277Z,2.55
2023-03-29T08:44:49.073Z,2.42
2023-03-29T08:49:02.883Z,2.65
2023-03-29T08:53:39.158Z,3.22
2023-03-29T08:58:03.137Z,2.63
2023-03-29T09:02:16.904Z,2.78
2023-03-29T09:06:22.217Z,2.60
2023-03-29T09:10:59.619Z,3.42
2023-03-29T09:15:19.714Z,3.20
2023-03-29T09:20:12.744Z,3.25
2023-03-29T09:24:38.790Z,3.08
2023-03-29T09:29:13.343Z,3.22
2023-03-29T09:33:25.120Z,2.95
2023-03-29T09:37:39.960Z,2.95
2023-03-29T09:41:53.103Z,2.90
2023-03-29T09:45:58.743Z,2.88
2023-03-29T09:50:37.008Z,2.75
2023-03-29T09:54:43.399Z,2.65
2023-03-29T09:59:14.064Z,3.60
2023-03-29T10:03:26.078Z,3.20
2023-03-29T10:07:48.117Z,3.92
2023-03-29T10:11:59.127Z,2.70
2023-03-29T10:16:17.258Z,2.65
2023-03-29T10:20:20.146Z,3.03
2023-03-29T10:28:27.712Z,2.83
2023-03-29T10:32:36.217Z,3.17
2023-03-29T10:36:42.212Z,3.03
2023-03-29T10:40:49.661Z,2.15
2023-03-29T10:44:57.149Z,3.03
2023-03-29T10:49:02.755Z,2.88
2023-03-29T10:53:16.147Z,2.58
2023-03-29T10:57:40.930Z,2.80
2023-03-29T11:02:05.229Z,2.30
2023-03-29T11:06:28.232Z,2.35
2023-03-29T11:10:45.463Z,2.72
2023-03-29T11:14:53.925Z,2.72
2023-03-29T11:19:30.170Z,2.40
2023-03-29T11:24:03.137Z,2.40
2023-03-29T11:28:12.159Z,2.90
2023-03-29T11:32:39.138Z,2.60
2023-03-29T11:36:58.943Z,2.50
2023-03-29T11:41:15.137Z,2.40
2023-03-29T11:45:41.401Z,2.70
2023-03-29T11:49:45.726Z,2.40
2023-03-29T11:54:04.121Z,2.50
2023-03-29T11:58:36.564Z,2.40
2023-03-29T12:02:46.430Z,2.47
2023-03-29T12:07:01.922Z,2.10
2023-03-29T12:11:51.512Z,2.60
2023-03-29T12:16:01.138Z,2.70
2023-03-29T12:20:27.178Z,2.25
2023-03-29T12:24:36.583Z,2.47
2023-03-29T12:28:51.852Z,2.40
2023-03-29T12:33:18.192Z,2.83
2023-03-29T12:37:38.058Z,2.72
2023-03-29T12:41:41.788Z,2.92
2023-03-29T12:46:15.181Z,3.00
2023-03-29T12:50:32.965Z,2.47
2023-03-29T12:54:34.706Z,3.03
2023-03-29T12:58:39.629Z,2.77
2023-03-29T13:02:46.222Z,2.53
2023-03-29T13:07:02.945Z,2.70
2023-03-29T13:11:06.448Z,2.15
2023-03-29T13:15:17.126Z,2.22
2023-03-29T13:19:39.553Z,2.60
2023-03-29T13:24:02.248Z,2.63
2023-03-29T13:28:10.616Z,2.47
2023-03-29T13:32:20.146Z,2.13
2023-03-29T13:36:33.010Z,2.45
2023-03-29T13:40:41.127Z,2.28
2023-03-29T13:44:46.276Z,2.58
2023-03-29T13:48:54.274Z,2.60
2023-03-29T13:53:06.467Z,2.47
2023-03-29T13:57:17.357Z,2.42
2023-03-29T14:01:41.100Z,2.35
2023-03-29T14:05:56.615Z,2.47
2023-03-29T14:10:02.197Z,2.72
2023-03-29T14:14:06.962Z,2.08
2023-03-29T14:18:14.903Z,2.28
2023-03-29T14:22:20.832Z,1.95
2023-03-29T14:26:24.213Z,2.67
2023-03-29T14:30:29.042Z,2.72
2023-03-29T14:34:31.000Z,2.28
2023-03-29T14:38:37.048Z,2.00
2023-03-29T14:42:39.838Z,2.00
2023-03-29T14:46:44.774Z,1.98
2023-03-29T14:50:48.174Z,2.40
2023-03-29T14:54:53.131Z,1.70
2023-03-29T14:58:56.797Z,1.70
2023-03-29T15:03:01.626Z,1.77
2023-03-29T15:07:05.347Z,1.85
2023-03-29T15:11:27.478Z,1.50
2023-03-29T15:15:34.858Z,1.50
2023-03-29T15:19:37.175Z,1.50
2023-03-29T15:23:48.250Z,1.50
2023-03-29T15:27:54.470Z,2.10
2023-03-29T15:31:57.814Z,1.85
2023-03-29T15:36:01.489Z,1.95
2023-03-29T15:40:09.854Z,1.65
2023-03-29T15:44:13.003Z,1.67
2023-03-29T15:48:23.593Z,1.88
2023-03-29T15:52:26.137Z,1.70
2023-03-29T15:56:28.835Z,1.88
2023-03-29T16:00:30.947Z,1.90
2023-03-29T16:04:34.139Z,2.00
2023-03-29T16:12:38.730Z,1.90
2023-03-29T16:16:40.590Z,2.65
2023-03-29T16:20:42.264Z,2.20
2023-03-29T16:24:44.013Z,2.30
2023-03-29T16:28:47.014Z,2.08
2023-03-29T16:32:48.851Z,1.80
2023-03-29T16:36:50.793Z,1.87
2023-03-29T16:40:52.750Z,1.83
2023-03-29T16:44:54.919Z,1.60
2023-03-29T16:48:58.029Z,1.80
2023-03-29T16:52:59.648Z,1.85
2023-03-29T16:57:02.175Z,2.30
2023-03-29T17:01:09.938Z,2.10
2023-03-29T17:05:13.144Z,1.70
2023-03-29T17:09:16.206Z,1.70
2023-03-29T17:13:21.378Z,1.70
2023-03-29T17:17:23.199Z,2.15
2023-03-29T17:21:26.761Z,1.45
2023-03-29T17:25:29.178Z,2.08
2023-03-29T17:29:31.007Z,1.25
2023-03-29T17:33:33.118Z,1.25
2023-03-29T17:37:35.500Z,1.03
2023-03-29T17:41:38.130Z,1.20
2023-03-29T17:45:39.781Z,2.13
2023-03-29T17:49:41.420Z,1.95
2023-03-29T17:53:43.178Z,1.70
2023-03-29T17:57:44.852Z,1.40
2023-03-29T18:01:46.614Z,1.58
2023-03-29T18:05:48.465Z,1.37
2023-03-29T18:09:51.502Z,1.45
2023-03-29T18:13:55.151Z,2.25
2023-03-29T18:17:57.544Z,2.55
2023-03-29T18:21:59.561Z,2.70
2023-03-29T18:26:05.947Z,2.25
2023-03-29T18:30:08.855Z,2.30
2023-03-29T18:34:10.730Z,1.77
2023-03-29T18:38:12.798Z,2.10
2023-03-29T18:42:14.626Z,2.17
2023-03-29T18:46:16.435Z,2.47
2023-03-29T18:50:18.294Z,1.83
2023-03-29T18:54:21.145Z,1.80
2023-03-29T18:58:24.138Z,4.97
2023-03-29T19:02:26.215Z,2.40
2023-03-29T19:06:27.990Z,1.70
2023-03-29T19:10:29.702Z,1.60
2023-03-29T19:14:31.353Z,2.05
2023-03-29T19:18:33.680Z,1.70
2023-03-29T19:22:35.812Z,1.50
2023-03-29T19:26:38.137Z,1.73
2023-03-29T19:30:39.872Z,1.92
2023-03-29T19:34:42.478Z,1.55
2023-03-29T19:38:44.976Z,1.90
2023-03-29T19:42:48.157Z,1.58
2023-03-29T19:46:51.396Z,1.50
2023-03-29T19:50:53.199Z,1.63
2023-03-29T19:54:58.760Z,1.35
2023-03-29T19:59:01.040Z,1.50
2023-03-29T20:03:03.707Z,1.50
2023-03-29T20:11:11.233Z,2.38
2023-03-29T20:15:14.811Z,1.98
2023-03-29T20:19:24.920Z,1.40
2023-03-29T20:23:27.686Z,1.95
2023-03-29T20:31:31.548Z,1.48
2023-03-29T20:35:34.137Z,1.53
2023-03-29T20:39:35.854Z,1.33
2023-03-29T20:43:38.034Z,1.50
2023-03-29T20:47:42.638Z,1.50
2023-03-29T20:51:44.429Z,1.42
2023-03-29T20:55:46.159Z,1.33
2023-03-29T20:59:51.775Z,1.20
2023-03-29T21:03:53.904Z,1.52
2023-03-29T21:07:55.785Z,1.65
2023-03-29T21:11:57.424Z,1.50
2023-03-29T21:15:59.148Z,1.50
2023-03-29T21:20:00.855Z,1.52
2023-03-29T21:24:03.812Z,1.83
2023-03-29T21:28:05.764Z,1.75
2023-03-29T21:32:07.731Z,1.27
2023-03-29T21:36:09.659Z,1.30
2023-03-29T21:40:12.774Z,1.30
2023-03-29T21:44:14.452Z,1.50
2023-03-29T21:48:17.330Z,1.33
2023-03-29T21:52:19.105Z,1.40
2023-03-29T21:56:22.597Z,1.17
2023-03-29T22:00:24.468Z,1.30
2023-03-29T22:04:35.910Z,1.65
2023-03-29T22:08:39.071Z,1.30
2023-03-29T22:12:41.461Z,1.20
2023-03-29T22:16:45.746Z,1.85
2023-03-29T22:20:48.551Z,1.55
2023-03-29T22:28:57.814Z,1.50
2023-03-29T22:32:59.479Z,1.90
2023-03-29T22:37:01.170Z,1.88
2023-03-29T22:41:02.924Z,2.00
2023-03-29T22:45:05.379Z,2.13
2023-03-29T22:49:07.300Z,1.67
2023-03-29T22:53:10.388Z,1.70
2023-03-29T22:57:12.091Z,1.85
2023-03-29T23:01:13.834Z,1.70
2023-03-29T23:05:15.701Z,1.85
2023-03-29T23:09:17.390Z,1.70
2023-03-29T23:13:26.044Z,1.80
2023-03-29T23:17:28.014Z,3.25
2023-03-29T23:21:29.636Z,2.03
2023-03-29T23:25:31.561Z,1.92
2023-03-29T23:29:34.681Z,1.97
2023-03-29T23:33:38.677Z,2.15
2023-03-29T23:37:40.681Z,2.17
2023-03-29T23:41:42.354Z,2.20
2023-03-29T23:45:43.992Z,2.13
2023-03-29T23:49:45.658Z,2.05
2023-03-29T23:53:47.533Z,1.85
2023-03-29T23:57:49.229Z,1.80
